createdAt,value
2019-03-17T00:00:07.006Z,10.19
2019-03-17T00:02:38.693Z,10.18
2019-03-17T00:05:09.298Z,10.23
2019-03-17T00:07:39.952Z,10.23
2019-03-17T00:10:10.315Z,10.24
2019-03-17T00:12:40.788Z,10.26
2019-03-17T00:15:11.547Z,10.29
2019-03-17T00:17:43.242Z,10.31
2019-03-17T00:20:14.334Z,10.36
2019-03-17T00:22:44.616Z,10.35
2019-03-17T00:25:14.961Z,10.35
2019-03-17T00:27:45.564Z,10.37
2019-03-17T00:30:15.918Z,10.39
2019-03-17T00:32:46.712Z,10.37
2019-03-17T00:35:16.959Z,10.41
2019-03-17T00:37:49.613Z,10.43
2019-03-17T00:40:20.659Z,10.46
2019-03-17T00:42:52.454Z,10.49
2019-03-17T00:45:23.822Z,10.52
2019-03-17T00:47:54.161Z,10.50
2019-03-17T00:50:24.578Z,10.53
2019-03-17T00:52:55.174Z,10.54
2019-03-17T00:55:25.729Z,10.58
2019-03-17T00:57:56.485Z,10.57
2019-03-17T01:00:26.739Z,10.59
2019-03-17T01:03:04.579Z,10.59
2019-03-17T01:06:17.898Z,10.62
2019-03-17T01:08:50.216Z,10.62
2019-03-17T01:11:25.943Z,10.61
2019-03-17T01:13:58.412Z,10.64
2019-03-17T01:16:31.823Z,10.63
2019-03-17T01:19:15.133Z,10.61
2019-03-17T01:21:47.516Z,10.61
2019-03-17T01:24:21.256Z,10.61
2019-03-17T01:26:55.154Z,10.65
2019-03-17T01:29:25.432Z,10.60
2019-03-17T01:31:56.051Z,10.59
2019-03-17T01:34:26.294Z,10.59
2019-03-17T01:36:56.948Z,10.59
2019-03-17T01:39:28.798Z,10.55
2019-03-17T01:41:59.270Z,10.59
2019-03-17T01:44:29.618Z,10.58
2019-03-17T01:47:01.214Z,10.59
2019-03-17T01:49:36.210Z,10.58
2019-03-17T01:52:06.497Z,10.61
2019-03-17T01:54:37.419Z,10.61
2019-03-17T01:57:07.850Z,10.54
2019-03-17T01:59:38.452Z,10.45
2019-03-17T02:02:09.522Z,10.43
2019-03-17T02:04:42.402Z,10.35
2019-03-17T02:07:12.976Z,10.32
2019-03-17T02:09:43.694Z,10.29
2019-03-17T02:12:14.500Z,10.22
2019-03-17T02:14:45.488Z,10.22
2019-03-17T02:17:16.860Z,10.21
2019-03-17T02:19:47.155Z,10.09
2019-03-17T02:22:17.388Z,10.15
2019-03-17T02:24:47.994Z,10.09
2019-03-17T02:27:18.567Z,10.13
2019-03-17T02:29:49.128Z,10.11
2019-03-17T02:32:19.720Z,10.07
2019-03-17T02:34:50.643Z,10.07
2019-03-17T02:37:20.893Z,10.08
2019-03-17T02:39:52.310Z,10.02
2019-03-17T02:42:22.762Z,10.01
2019-03-17T02:44:53.089Z,9.98
2019-03-17T02:47:23.689Z,9.97
2019-03-17T02:49:54.196Z,9.96
2019-03-17T02:52:24.470Z,9.97
2019-03-17T02:54:56.512Z,9.96
2019-03-17T02:57:27.017Z,9.96
2019-03-17T02:59:57.287Z,9.95
2019-03-17T03:02:27.971Z,9.94
2019-03-17T03:04:59.117Z,9.98
2019-03-17T03:07:29.287Z,9.97
2019-03-17T03:09:59.568Z,9.87
2019-03-17T03:12:30.271Z,9.96
2019-03-17T03:15:00.821Z,9.98
2019-03-17T03:17:31.321Z,10.01
2019-03-17T03:20:01.928Z,10.00
2019-03-17T03:22:32.350Z,9.97
2019-03-17T03:25:02.994Z,9.96
2019-03-17T03:27:33.542Z,9.95
2019-03-17T03:30:03.824Z,9.95
2019-03-17T03:32:36.459Z,9.95
2019-03-17T03:35:07.030Z,9.92
2019-03-17T03:37:37.242Z,9.89
2019-03-17T03:40:08.239Z,9.89
2019-03-17T03:42:38.813Z,9.90
2019-03-17T03:45:09.239Z,9.91
2019-03-17T03:47:39.462Z,9.83
2019-03-17T03:50:10.100Z,9.82
2019-03-17T03:52:40.974Z,9.88
2019-03-17T03:55:11.491Z,9.91
2019-03-17T03:57:41.722Z,9.94
2019-03-17T04:00:12.013Z,9.95
2019-03-17T04:02:42.525Z,9.88
2019-03-17T04:05:13.087Z,9.87
2019-03-17T04:07:43.494Z,9.84
2019-03-17T04:10:13.902Z,9.88
2019-03-17T04:12:44.125Z,9.80
2019-03-17T04:15:14.381Z,9.73
2019-03-17T04:17:44.997Z,9.65
2019-03-17T04:20:15.400Z,9.64
2019-03-17T04:22:46.734Z,9.61
2019-03-17T04:25:18.320Z,9.49
2019-03-17T04:27:48.462Z,9.46
2019-03-17T04:30:18.646Z,9.41
2019-03-17T04:32:49.498Z,9.36
2019-03-17T04:35:20.014Z,9.32
2019-03-17T04:37:50.209Z,9.30
2019-03-17T04:40:20.459Z,9.29
2019-03-17T04:42:50.990Z,9.25
2019-03-17T04:45:21.206Z,9.25
2019-03-17T04:47:52.457Z,9.21
2019-03-17T04:50:22.754Z,9.19
2019-03-17T04:52:53.035Z,9.15
2019-03-17T04:55:23.557Z,9.09
2019-03-17T04:57:53.745Z,9.14
2019-03-17T05:00:23.989Z,9.16
2019-03-17T05:02:54.880Z,9.18
2019-03-17T05:05:25.173Z,9.18
2019-03-17T05:07:56.193Z,9.19
2019-03-17T05:10:26.752Z,9.20
2019-03-17T05:13:00.144Z,9.17
2019-03-17T05:15:30.339Z,9.18
2019-03-17T05:18:01.363Z,9.19
2019-03-17T05:20:31.650Z,9.20
2019-03-17T05:23:01.855Z,9.18
2019-03-17T05:25:32.215Z,9.18
2019-03-17T05:28:02.743Z,9.18
2019-03-17T05:30:34.003Z,9.22
2019-03-17T05:33:04.262Z,9.18
2019-03-17T05:35:34.518Z,9.18
2019-03-17T05:38:04.691Z,9.20
2019-03-17T05:40:35.069Z,9.20
2019-03-17T05:43:05.293Z,9.18
2019-03-17T05:45:35.582Z,9.20
2019-03-17T05:48:06.922Z,9.24
2019-03-17T05:50:37.460Z,9.25
2019-03-17T05:53:07.907Z,9.23
2019-03-17T05:55:38.502Z,8.85
2019-03-17T05:58:08.758Z,8.09
2019-03-17T06:00:38.975Z,7.59
2019-03-17T06:03:09.282Z,7.18
2019-03-17T06:05:39.931Z,6.95
2019-03-17T06:08:10.285Z,6.82
2019-03-17T06:10:40.678Z,6.72
2019-03-17T06:13:10.860Z,6.65
2019-03-17T06:15:41.087Z,6.60
2019-03-17T06:18:12.646Z,6.59
2019-03-17T06:20:44.114Z,6.55
2019-03-17T06:23:14.364Z,6.53
2019-03-17T06:25:45.449Z,6.51
2019-03-17T06:28:15.642Z,6.51
2019-03-17T06:30:46.233Z,6.48
2019-03-17T06:33:18.720Z,6.46
2019-03-17T06:35:48.907Z,6.44
2019-03-17T06:38:19.385Z,6.47
2019-03-17T06:40:49.673Z,6.47
2019-03-17T06:43:19.896Z,6.49
2019-03-17T06:45:50.455Z,6.52
2019-03-17T06:48:21.654Z,6.51
2019-03-17T06:50:53.194Z,6.49
2019-03-17T06:53:23.352Z,6.47
2019-03-17T06:55:53.861Z,6.48
2019-03-17T06:58:24.375Z,6.44
2019-03-17T07:00:55.635Z,6.42
2019-03-17T07:03:25.915Z,6.40
2019-03-17T07:05:56.223Z,6.43
2019-03-17T07:08:27.493Z,6.45
2019-03-17T07:10:57.855Z,6.50
2019-03-17T07:13:30.020Z,6.59
2019-03-17T07:16:02.008Z,6.63
2019-03-17T07:18:32.631Z,6.64
2019-03-17T07:21:02.892Z,6.65
2019-03-17T07:23:34.321Z,6.68
2019-03-17T07:26:05.673Z,6.70
2019-03-17T07:28:36.118Z,6.68
2019-03-17T07:31:06.930Z,6.66
2019-03-17T07:33:37.325Z,6.68
2019-03-17T07:36:07.522Z,6.69
2019-03-17T07:38:37.989Z,6.70
2019-03-17T07:41:10.783Z,6.69
2019-03-17T07:43:41.021Z,6.76
2019-03-17T07:46:11.520Z,6.78
2019-03-17T07:48:42.424Z,6.79
2019-03-17T07:51:15.973Z,6.85
2019-03-17T07:53:47.517Z,6.88
2019-03-17T07:56:18.029Z,6.90
2019-03-17T07:58:48.534Z,6.94
2019-03-17T08:01:19.085Z,6.91
2019-03-17T08:03:49.667Z,6.88
2019-03-17T08:06:20.065Z,6.87
2019-03-17T08:08:50.485Z,6.85
2019-03-17T08:11:21.821Z,6.71
2019-03-17T08:13:52.542Z,6.68
2019-03-17T08:16:23.293Z,6.55
2019-03-17T08:18:54.262Z,6.51
2019-03-17T08:21:24.453Z,6.49
2019-03-17T08:23:54.972Z,6.47
2019-03-17T08:26:25.148Z,6.51
2019-03-17T08:28:55.347Z,6.57
2019-03-17T08:31:26.494Z,6.61
2019-03-17T08:33:56.811Z,6.69
2019-03-17T08:36:27.983Z,6.80
2019-03-17T08:38:58.281Z,6.94
2019-03-17T08:41:28.744Z,6.95
2019-03-17T08:43:59.455Z,6.96
2019-03-17T08:46:30.842Z,6.93
2019-03-17T08:49:01.735Z,6.92
2019-03-17T08:51:32.466Z,6.98
2019-03-17T08:54:02.750Z,6.95
2019-03-17T08:56:32.998Z,7.04
2019-03-17T08:59:03.420Z,7.19
2019-03-17T09:01:34.365Z,7.29
2019-03-17T09:04:05.072Z,7.40
2019-03-17T09:06:35.431Z,7.59
2019-03-17T09:09:08.549Z,7.73
2019-03-17T09:11:39.635Z,7.80
2019-03-17T09:14:10.705Z,7.76
2019-03-17T09:16:41.259Z,7.66
2019-03-17T09:19:11.716Z,7.59
2019-03-17T09:21:42.268Z,7.58
2019-03-17T09:24:17.413Z,7.67
2019-03-17T09:26:45.220Z,7.81
2019-03-17T09:29:16.183Z,7.83
2019-03-17T09:31:46.362Z,7.77
2019-03-17T09:34:17.204Z,7.80
2019-03-17T09:36:48.421Z,7.73
2019-03-17T09:39:19.032Z,7.77
2019-03-17T09:41:49.177Z,7.81
2019-03-17T09:44:19.396Z,7.84
2019-03-17T09:46:49.588Z,7.87
2019-03-17T09:49:20.822Z,8.01
2019-03-17T09:51:51.340Z,8.24
2019-03-17T09:54:21.498Z,8.58
2019-03-17T09:56:51.799Z,9.14
2019-03-17T09:59:22.843Z,9.83
2019-03-17T10:01:53.417Z,10.06
2019-03-17T10:04:23.846Z,10.29
2019-03-17T10:06:55.613Z,10.80
2019-03-17T10:09:26.512Z,11.28
2019-03-17T10:11:57.201Z,11.36
2019-03-17T10:14:28.675Z,11.26
2019-03-17T10:16:58.830Z,11.18
2019-03-17T10:19:30.078Z,11.25
2019-03-17T10:22:00.380Z,11.06
2019-03-17T10:24:30.810Z,11.04
2019-03-17T10:27:01.299Z,11.24
2019-03-17T10:29:31.750Z,12.04
2019-03-17T10:32:02.096Z,12.48
2019-03-17T10:34:35.998Z,13.91
2019-03-17T10:37:06.708Z,13.91
2019-03-17T10:39:37.568Z,14.07
2019-03-17T10:42:08.702Z,13.71
2019-03-17T10:44:39.868Z,13.71
2019-03-17T10:47:10.582Z,13.60
2019-03-17T10:49:41.536Z,12.75
2019-03-17T10:52:11.679Z,12.67
2019-03-17T10:54:41.877Z,12.67
2019-03-17T10:57:12.142Z,12.40
2019-03-17T10:59:43.377Z,12.01
2019-03-17T11:02:13.566Z,12.27
2019-03-17T11:04:43.835Z,12.07
2019-03-17T11:07:14.339Z,13.00
2019-03-17T11:09:44.585Z,13.00
2019-03-17T11:12:14.892Z,12.48
2019-03-17T11:14:45.603Z,11.77
2019-03-17T11:17:16.143Z,11.06
2019-03-17T11:19:46.397Z,11.12
2019-03-17T11:22:18.377Z,11.61
2019-03-17T11:24:49.154Z,12.12
2019-03-17T11:27:19.421Z,12.18
2019-03-17T11:29:49.860Z,11.88
2019-03-17T11:32:20.320Z,11.14
2019-03-17T11:34:51.353Z,10.49
2019-03-17T11:37:23.616Z,9.92
2019-03-17T11:39:54.292Z,9.84
2019-03-17T11:42:24.793Z,10.01
2019-03-17T11:44:55.444Z,10.35
2019-03-17T11:47:25.639Z,11.00
2019-03-17T11:49:55.909Z,11.59
2019-03-17T11:52:26.444Z,11.95
2019-03-17T11:54:56.859Z,12.26
2019-03-17T11:57:27.000Z,12.38
2019-03-17T11:59:57.564Z,12.20
2019-03-17T12:02:30.069Z,12.22
2019-03-17T12:05:00.382Z,12.22
2019-03-17T12:07:31.344Z,11.54
2019-03-17T12:10:01.805Z,10.84
2019-03-17T12:12:32.326Z,10.38
2019-03-17T12:15:02.568Z,9.69
2019-03-17T12:17:35.936Z,9.18
2019-03-17T12:20:07.529Z,9.06
2019-03-17T12:22:37.716Z,9.03
2019-03-17T12:25:11.563Z,8.94
2019-03-17T12:27:42.202Z,8.88
2019-03-17T12:30:21.506Z,8.68
2019-03-17T12:32:51.846Z,8.50
2019-03-17T12:35:22.429Z,8.44
2019-03-17T12:37:53.227Z,8.40
2019-03-17T12:40:23.376Z,9.10
2019-03-17T12:42:53.552Z,9.96
2019-03-17T12:45:24.769Z,10.65
2019-03-17T12:47:56.690Z,11.34
2019-03-17T12:50:28.176Z,12.16
2019-03-17T12:52:59.558Z,12.55
2019-03-17T12:55:30.217Z,12.25
2019-03-17T12:58:02.225Z,11.47
2019-03-17T13:00:32.447Z,10.91
2019-03-17T13:03:02.680Z,10.65
2019-03-17T13:05:33.610Z,10.59
2019-03-17T13:08:03.821Z,10.14
2019-03-17T13:10:34.259Z,9.89
2019-03-17T13:13:04.530Z,9.63
2019-03-17T13:15:35.416Z,9.58
2019-03-17T13:18:06.637Z,10.18
2019-03-17T13:20:37.402Z,10.79
2019-03-17T13:23:07.580Z,11.58
2019-03-17T13:25:38.419Z,11.93
2019-03-17T13:28:08.864Z,11.66
2019-03-17T13:30:39.821Z,11.80
2019-03-17T13:33:10.349Z,11.96
2019-03-17T13:35:41.438Z,12.17
2019-03-17T13:38:12.101Z,12.01
2019-03-17T13:40:42.638Z,11.80
2019-03-17T13:43:13.354Z,11.36
2019-03-17T13:45:44.149Z,10.69
2019-03-17T13:48:14.684Z,10.25
2019-03-17T13:50:44.934Z,9.99
2019-03-17T13:53:15.529Z,9.95
2019-03-17T13:55:46.095Z,10.03
2019-03-17T13:58:16.852Z,10.13
2019-03-17T14:00:50.682Z,9.99
2019-03-17T14:03:21.313Z,10.06
2019-03-17T14:05:51.959Z,9.74
2019-03-17T14:08:23.359Z,9.51
2019-03-17T14:10:53.847Z,9.43
2019-03-17T14:13:24.326Z,9.62
2019-03-17T14:15:56.212Z,9.67
2019-03-17T14:18:27.447Z,9.69
2019-03-17T14:20:57.667Z,9.71
2019-03-17T14:23:29.540Z,9.73
2019-03-17T14:26:00.161Z,9.80
2019-03-17T14:28:30.456Z,9.73
2019-03-17T14:31:01.477Z,9.67
2019-03-17T14:33:33.248Z,9.55
2019-03-17T14:36:03.456Z,9.58
2019-03-17T14:38:34.097Z,9.64
2019-03-17T14:41:04.387Z,9.58
2019-03-17T14:43:34.649Z,9.41
2019-03-17T14:46:05.992Z,9.43
2019-03-17T14:48:36.427Z,9.44
2019-03-17T14:51:06.964Z,9.34
2019-03-17T14:53:37.484Z,9.15
2019-03-17T14:56:08.781Z,9.04
2019-03-17T14:58:39.224Z,8.91
2019-03-17T15:01:09.820Z,8.79
2019-03-17T15:03:40.096Z,8.63
2019-03-17T15:06:11.707Z,8.53
2019-03-17T15:08:42.271Z,8.57
2019-03-17T15:11:13.081Z,8.66
2019-03-17T15:13:44.363Z,8.76
2019-03-17T15:16:14.962Z,8.74
2019-03-17T15:18:45.236Z,8.65
2019-03-17T15:21:15.476Z,8.58
2019-03-17T15:23:46.413Z,8.61
2019-03-17T15:26:17.929Z,8.66
2019-03-17T15:28:48.565Z,8.56
2019-03-17T15:31:18.743Z,8.50
2019-03-17T15:33:49.916Z,8.51
2019-03-17T15:36:20.474Z,8.50
2019-03-17T15:38:51.273Z,8.39
2019-03-17T15:41:22.263Z,8.31
2019-03-17T15:43:52.966Z,8.27
2019-03-17T15:46:23.653Z,8.25
2019-03-17T15:48:54.742Z,8.28
2019-03-17T15:51:28.651Z,8.30
2019-03-17T15:53:59.547Z,8.36
2019-03-17T15:56:30.635Z,8.40
2019-03-17T15:59:01.712Z,8.39
2019-03-17T16:01:32.711Z,8.21
2019-03-17T16:04:04.833Z,7.89
2019-03-17T16:06:35.387Z,7.60
2019-03-17T16:09:08.919Z,7.37
2019-03-17T16:11:39.313Z,7.23
2019-03-17T16:14:09.895Z,7.18
2019-03-17T16:16:40.773Z,7.14
2019-03-17T16:19:11.675Z,7.13
2019-03-17T16:21:43.321Z,7.16
2019-03-17T16:24:15.625Z,7.21
2019-03-17T16:26:46.543Z,7.28
2019-03-17T16:29:17.109Z,7.34
2019-03-17T16:31:49.025Z,7.37
2019-03-17T16:34:19.532Z,7.33
2019-03-17T16:36:50.166Z,7.37
2019-03-17T16:39:20.434Z,7.40
2019-03-17T16:41:51.124Z,7.40
2019-03-17T16:44:21.743Z,7.40
2019-03-17T16:46:53.697Z,7.26
2019-03-17T16:49:25.605Z,7.13
2019-03-17T16:51:58.083Z,7.13
2019-03-17T16:54:29.032Z,7.18
2019-03-17T16:56:59.488Z,7.22
2019-03-17T16:59:32.182Z,7.27
2019-03-17T17:02:03.329Z,7.30
2019-03-17T17:04:33.840Z,7.30
2019-03-17T17:07:04.461Z,7.31
2019-03-17T17:09:36.547Z,7.32
2019-03-17T17:12:07.287Z,7.34
2019-03-17T17:14:37.936Z,7.35
2019-03-17T17:17:09.041Z,7.29
2019-03-17T17:19:39.716Z,7.27
2019-03-17T17:22:10.773Z,7.21
2019-03-17T17:24:42.365Z,7.18
2019-03-17T17:27:13.392Z,7.13
2019-03-17T17:29:44.189Z,7.10
2019-03-17T17:32:15.009Z,7.02
2019-03-17T17:34:45.368Z,6.94
2019-03-17T17:37:16.320Z,6.87
2019-03-17T17:39:48.894Z,6.81
2019-03-17T17:42:19.588Z,6.78
2019-03-17T17:44:56.500Z,6.76
2019-03-17T17:47:27.217Z,6.74
2019-03-17T17:49:57.842Z,6.74
2019-03-17T17:52:28.551Z,6.74
2019-03-17T17:54:59.054Z,6.77
2019-03-17T17:57:30.200Z,6.81
2019-03-17T18:00:07.054Z,6.82
2019-03-17T18:02:38.316Z,6.77
2019-03-17T18:05:09.325Z,6.73
2019-03-17T18:07:44.335Z,6.68
2019-03-17T18:10:17.062Z,6.63
2019-03-17T18:12:48.234Z,6.60
2019-03-17T18:15:21.946Z,6.61
2019-03-17T18:17:52.670Z,6.58
2019-03-17T18:20:23.399Z,6.49
2019-03-17T18:22:54.014Z,6.44
2019-03-17T18:25:24.743Z,6.41
2019-03-17T18:27:55.307Z,6.41
2019-03-17T18:30:28.381Z,6.38
2019-03-17T18:32:59.226Z,6.36
2019-03-17T18:35:31.284Z,6.35
2019-03-17T18:38:02.127Z,6.35
2019-03-17T18:40:32.740Z,6.31
2019-03-17T18:43:03.378Z,6.32
2019-03-17T18:45:34.177Z,6.29
2019-03-17T18:48:05.795Z,6.27
2019-03-17T18:50:36.209Z,6.26
2019-03-17T18:53:11.279Z,6.21
2019-03-17T18:55:42.768Z,6.21
2019-03-17T18:58:13.798Z,6.17
2019-03-17T19:00:44.688Z,6.10
2019-03-17T19:03:15.731Z,6.05
2019-03-17T19:05:46.436Z,6.04
2019-03-17T19:08:17.501Z,5.96
2019-03-17T19:10:48.027Z,5.94
2019-03-17T19:13:19.799Z,5.91
2019-03-17T19:15:51.097Z,5.91
2019-03-17T19:18:21.974Z,5.90
2019-03-17T19:20:56.291Z,5.95
2019-03-17T19:23:30.811Z,5.96
2019-03-17T19:26:04.358Z,6.00
2019-03-17T19:28:34.923Z,6.02
2019-03-17T19:31:08.757Z,6.03
2019-03-17T19:33:39.908Z,6.07
2019-03-17T19:36:12.778Z,6.12
2019-03-17T19:38:45.341Z,6.17
2019-03-17T19:41:16.876Z,6.17
2019-03-17T19:43:48.552Z,6.18
2019-03-17T19:46:22.216Z,6.11
2019-03-17T19:48:55.246Z,6.07
2019-03-17T19:51:26.636Z,6.04
2019-03-17T19:53:58.534Z,6.05
2019-03-17T19:56:30.850Z,6.05
2019-03-17T19:59:03.927Z,6.05
2019-03-17T20:01:42.063Z,6.01
2019-03-17T20:04:15.600Z,5.97
2019-03-17T20:06:49.940Z,5.93
2019-03-17T20:09:32.559Z,5.91
2019-03-17T20:12:11.305Z,5.94
2019-03-17T20:14:45.444Z,5.96
2019-03-17T20:17:18.662Z,6.00
2019-03-17T20:19:49.883Z,6.06
2019-03-17T20:22:26.859Z,6.06
2019-03-17T20:25:03.519Z,6.07
2019-03-17T20:27:37.345Z,6.08
2019-03-17T20:30:09.078Z,6.06
2019-03-17T20:32:45.957Z,6.08
2019-03-17T20:35:18.430Z,6.09
2019-03-17T20:37:52.044Z,6.13
2019-03-17T20:40:23.196Z,6.13
2019-03-17T20:42:53.631Z,6.17
2019-03-17T20:45:25.537Z,6.19
2019-03-17T20:48:06.862Z,6.16
2019-03-17T20:50:37.679Z,6.15
2019-03-17T20:53:08.815Z,6.16
2019-03-17T20:55:42.411Z,6.19
2019-03-17T20:58:13.634Z,6.20
2019-03-17T21:00:47.087Z,6.23
2019-03-17T21:03:18.714Z,6.27
2019-03-17T21:05:49.864Z,6.27
2019-03-17T21:08:23.081Z,6.26
2019-03-17T21:10:56.354Z,6.28
2019-03-17T21:13:32.925Z,6.33
2019-03-17T21:16:04.756Z,6.39
2019-03-17T21:18:38.792Z,6.44
2019-03-17T21:21:09.466Z,6.45
2019-03-17T21:23:43.197Z,6.44
2019-03-17T21:26:22.152Z,6.45
2019-03-17T21:28:58.096Z,6.41
2019-03-17T21:31:45.144Z,6.36
2019-03-17T21:34:20.440Z,6.31
2019-03-17T21:37:00.505Z,6.33
2019-03-17T21:42:14.150Z,6.26
2019-03-17T21:44:48.740Z,6.16
2019-03-17T21:47:19.107Z,6.08
2019-03-17T21:49:50.649Z,5.99
2019-03-17T21:52:20.965Z,5.92
2019-03-17T21:54:56.139Z,5.88
2019-03-17T22:04:01.199Z,5.80
2019-03-17T22:09:41.125Z,5.45
2019-03-17T22:12:11.478Z,5.31
2019-03-17T22:17:23.615Z,4.40
2019-03-17T22:19:57.899Z,3.87
2019-03-17T22:22:49.743Z,3.69
2019-03-17T22:25:20.023Z,3.54
2019-03-17T22:28:08.205Z,3.47
2019-03-17T22:30:40.632Z,3.52
2019-03-17T22:33:22.199Z,3.56
2019-03-17T22:35:53.970Z,3.65
2019-03-17T22:38:26.095Z,3.77
2019-03-17T22:44:03.174Z,3.92
2019-03-17T22:46:33.671Z,4.04
2019-03-17T22:49:16.539Z,4.16
2019-03-17T22:52:26.987Z,4.23
2019-03-17T22:57:39.620Z,4.36
2019-03-17T23:00:13.340Z,4.41
2019-03-17T23:02:43.622Z,4.48
2019-03-17T23:05:13.903Z,4.52
2019-03-17T23:10:38.720Z,4.65
2019-03-17T23:13:09.101Z,4.67
2019-03-17T23:18:48.010Z,4.70
2019-03-17T23:21:22.241Z,4.74
2019-03-17T23:23:53.266Z,4.78
2019-03-17T23:26:25.558Z,4.80
2019-03-17T23:28:56.208Z,4.79
2019-03-17T23:31:26.596Z,4.78
2019-03-17T23:33:56.908Z,4.79
2019-03-17T23:36:28.036Z,4.79
2019-03-17T23:38:58.423Z,4.80
2019-03-17T23:41:35.694Z,4.84
2019-03-17T23:44:05.958Z,4.87
2019-03-17T23:46:36.524Z,4.89
2019-03-17T23:49:07.064Z,4.96
2019-03-17T23:51:38.008Z,5.00
2019-03-17T23:54:09.045Z,5.05
2019-03-17T23:59:43.453Z,5.10
